createdAt,value
2022-07-31T00:00:32.493Z,9.40
2022-07-31T00:03:18.905Z,9.23
2022-07-31T00:06:07.271Z,7.53
2022-07-31T00:08:55.077Z,8.73
2022-07-31T00:11:43.704Z,6.63
2022-07-31T00:14:30.522Z,6.70
2022-07-31T00:17:16.993Z,7.83
2022-07-31T00:20:03.402Z,9.83
2022-07-31T00:22:51.273Z,13.80
2022-07-31T00:25:38.124Z,9.93
2022-07-31T00:28:26.079Z,7.53
2022-07-31T00:31:12.532Z,7.90
2022-07-31T00:33:58.983Z,7.70
2022-07-31T00:36:45.317Z,10.40
2022-07-31T00:39:33.057Z,8.97
2022-07-31T00:42:20.378Z,7.60
2022-07-31T00:45:08.607Z,8.27
2022-07-31T00:47:55.991Z,7.53
2022-07-31T00:50:42.744Z,10.03
2022-07-31T00:53:29.144Z,7.67
2022-07-31T00:56:16.886Z,12.43
2022-07-31T00:59:04.690Z,8.10
2022-07-31T01:01:51.220Z,9.27
2022-07-31T01:04:37.783Z,9.17
2022-07-31T01:07:28.249Z,9.27
2022-07-31T01:10:18.715Z,11.77
2022-07-31T01:13:11.606Z,8.80
2022-07-31T01:15:59.487Z,11.13
2022-07-31T01:18:47.565Z,10.53
2022-07-31T01:21:36.792Z,13.87
2022-07-31T01:24:49.570Z,9.60
2022-07-31T01:27:53.267Z,12.30
2022-07-31T01:30:45.754Z,11.30
2022-07-31T01:33:37.993Z,9.60
2022-07-31T01:36:27.276Z,9.27
2022-07-31T01:39:14.101Z,8.83
2022-07-31T01:42:06.082Z,8.73
2022-07-31T01:44:57.511Z,11.13
2022-07-31T01:47:46.149Z,9.37
2022-07-31T01:50:43.969Z,14.50
2022-07-31T01:53:32.262Z,10.60
2022-07-31T01:56:19.804Z,9.40
2022-07-31T01:59:20.136Z,10.73
2022-07-31T02:02:09.934Z,9.20
2022-07-31T02:04:59.344Z,8.43
2022-07-31T02:07:47.149Z,10.87
2022-07-31T02:10:35.173Z,11.13
2022-07-31T02:13:23.485Z,9.60
2022-07-31T02:16:10.332Z,9.17
2022-07-31T02:18:58.142Z,10.23
2022-07-31T02:21:46.291Z,8.63
2022-07-31T02:24:33.254Z,9.07
2022-07-31T02:27:57.784Z,9.17
2022-07-31T02:30:39.261Z,10.23
2022-07-31T02:33:27.729Z,9.43
2022-07-31T02:36:15.468Z,10.50
2022-07-31T02:39:04.685Z,10.67
2022-07-31T02:41:51.231Z,9.33
2022-07-31T02:44:39.844Z,13.07
2022-07-31T02:47:26.494Z,10.63
2022-07-31T02:50:13.812Z,9.60
2022-07-31T02:53:04.953Z,8.63
2022-07-31T02:55:53.381Z,8.97
2022-07-31T02:58:41.941Z,9.80
2022-07-31T03:01:28.684Z,12.13
2022-07-31T03:04:15.641Z,9.37
2022-07-31T03:07:02.002Z,9.40
2022-07-31T03:09:49.626Z,8.70
2022-07-31T03:12:37.955Z,9.33
2022-07-31T03:15:27.715Z,15.33
2022-07-31T03:18:16.373Z,13.57
2022-07-31T03:21:03.031Z,12.30
2022-07-31T03:23:51.426Z,9.97
2022-07-31T03:26:37.918Z,10.90
2022-07-31T03:29:39.293Z,9.67
2022-07-31T03:32:30.601Z,10.00
2022-07-31T03:35:18.167Z,11.97
2022-07-31T03:38:39.091Z,10.80
2022-07-31T03:41:13.090Z,9.83
2022-07-31T03:44:00.045Z,11.43
2022-07-31T03:46:48.121Z,11.60
2022-07-31T03:49:35.681Z,11.83
2022-07-31T03:52:22.408Z,12.33
2022-07-31T03:55:09.913Z,10.50
2022-07-31T03:57:56.797Z,12.40
2022-07-31T04:00:45.237Z,13.43
2022-07-31T04:03:33.407Z,10.73
2022-07-31T04:06:19.816Z,12.40
2022-07-31T04:09:13.252Z,12.17
2022-07-31T04:12:06.260Z,13.73
2022-07-31T04:14:52.992Z,15.30
2022-07-31T04:17:39.239Z,20.83
2022-07-31T04:20:26.872Z,13.57
2022-07-31T04:23:13.325Z,14.60
2022-07-31T04:26:00.359Z,15.53
2022-07-31T04:28:46.743Z,14.57
2022-07-31T04:31:33.175Z,14.40
2022-07-31T04:34:19.535Z,13.93
2022-07-31T04:37:07.399Z,17.37
2022-07-31T04:39:54.151Z,18.47
2022-07-31T04:42:40.545Z,17.10
2022-07-31T04:45:26.875Z,16.53
2022-07-31T04:48:13.466Z,17.83
2022-07-31T04:50:59.867Z,14.77
2022-07-31T04:53:48.221Z,14.23
2022-07-31T04:56:36.060Z,15.93
2022-07-31T04:59:23.691Z,17.20
2022-07-31T05:02:30.429Z,18.30
2022-07-31T05:05:17.636Z,19.07
2022-07-31T05:08:04.064Z,18.03
2022-07-31T05:11:09.297Z,14.50
2022-07-31T05:13:57.213Z,18.30
2022-07-31T05:16:43.647Z,19.30
2022-07-31T05:19:30.768Z,19.53
2022-07-31T05:22:18.830Z,17.00
2022-07-31T05:25:06.323Z,24.80
2022-07-31T05:27:54.244Z,15.83
2022-07-31T05:30:41.535Z,17.60
2022-07-31T05:33:28.668Z,18.60
2022-07-31T05:36:15.953Z,15.33
2022-07-31T05:39:02.809Z,16.30
2022-07-31T05:41:51.366Z,15.83
2022-07-31T05:44:39.070Z,12.93
2022-07-31T05:47:25.389Z,14.73
2022-07-31T05:50:28.455Z,12.93
2022-07-31T05:53:16.004Z,17.43
2022-07-31T05:56:02.654Z,13.00
2022-07-31T05:58:49.121Z,11.00
2022-07-31T06:01:37.050Z,14.07
2022-07-31T06:04:24.375Z,15.97
2022-07-31T06:07:11.044Z,12.83
2022-07-31T06:09:58.409Z,12.90
2022-07-31T06:12:45.072Z,13.07
2022-07-31T06:15:36.051Z,12.27
2022-07-31T06:18:24.412Z,13.10
2022-07-31T06:23:57.679Z,10.60
2022-07-31T06:26:44.089Z,14.63
2022-07-31T06:29:41.688Z,13.33
2022-07-31T06:32:28.696Z,10.47
2022-07-31T06:35:16.456Z,10.43
2022-07-31T06:38:03.304Z,12.07
2022-07-31T06:40:49.643Z,11.57
2022-07-31T06:43:36.085Z,9.87
2022-07-31T06:46:22.692Z,8.80
2022-07-31T06:49:09.291Z,9.60
2022-07-31T06:51:57.219Z,9.53
2022-07-31T06:54:44.116Z,8.33
2022-07-31T06:57:30.483Z,7.97
2022-07-31T07:00:20.426Z,8.77
2022-07-31T07:03:07.776Z,6.70
2022-07-31T07:05:54.168Z,9.07
2022-07-31T07:08:41.929Z,7.50
2022-07-31T07:11:28.431Z,8.40
2022-07-31T07:14:14.893Z,7.87
2022-07-31T07:17:04.805Z,12.67
2022-07-31T07:19:54.687Z,5.73
2022-07-31T07:22:42.495Z,7.70
2022-07-31T07:25:30.182Z,6.83
2022-07-31T07:28:30.945Z,6.77
2022-07-31T07:31:17.875Z,6.47
2022-07-31T07:34:06.241Z,4.50
2022-07-31T07:36:52.941Z,6.03
2022-07-31T07:39:39.226Z,7.93
2022-07-31T07:42:27.053Z,7.77
2022-07-31T07:45:14.442Z,5.67
2022-07-31T07:48:06.603Z,5.50
2022-07-31T07:50:53.952Z,7.43
2022-07-31T07:53:40.468Z,7.83
2022-07-31T07:56:26.993Z,5.80
2022-07-31T07:59:15.111Z,4.90
2022-07-31T08:02:02.104Z,4.60
2022-07-31T08:04:49.633Z,6.67
2022-07-31T08:07:42.135Z,5.07
2022-07-31T08:10:29.488Z,5.03
2022-07-31T08:13:15.767Z,4.37
2022-07-31T08:16:03.642Z,4.93
2022-07-31T08:18:50.438Z,4.87
2022-07-31T08:21:37.467Z,3.87
2022-07-31T08:24:24.292Z,5.53
2022-07-31T08:27:39.938Z,7.30
2022-07-31T08:30:30.748Z,7.03
2022-07-31T08:33:19.111Z,5.07
2022-07-31T08:36:09.039Z,6.30
2022-07-31T08:38:55.759Z,3.80
2022-07-31T08:41:42.147Z,3.90
2022-07-31T08:44:31.180Z,3.87
2022-07-31T08:47:18.464Z,3.10
2022-07-31T08:50:07.454Z,5.23
2022-07-31T08:52:57.372Z,2.90
2022-07-31T08:55:56.654Z,3.90
2022-07-31T08:58:45.088Z,8.20
2022-07-31T09:01:33.944Z,3.20
2022-07-31T09:04:20.506Z,3.13
2022-07-31T09:07:11.976Z,5.77
2022-07-31T09:09:58.519Z,4.57
2022-07-31T09:12:45.000Z,5.07
2022-07-31T09:15:32.888Z,3.33
2022-07-31T09:18:20.035Z,4.40
2022-07-31T09:21:08.447Z,4.37
2022-07-31T09:23:56.468Z,4.03
2022-07-31T09:26:43.068Z,3.00
2022-07-31T09:29:38.207Z,3.77
2022-07-31T09:32:25.151Z,5.27
2022-07-31T09:35:14.365Z,3.50
2022-07-31T09:38:01.087Z,8.77
2022-07-31T09:40:56.954Z,5.80
2022-07-31T09:43:51.635Z,2.90
2022-07-31T09:46:42.769Z,2.80
2022-07-31T09:49:33.426Z,4.07
2022-07-31T09:52:20.707Z,4.13
2022-07-31T09:55:16.294Z,3.40
2022-07-31T09:58:04.816Z,3.43
2022-07-31T10:00:53.629Z,2.60
2022-07-31T10:03:41.593Z,3.23
2022-07-31T10:06:29.226Z,4.83
2022-07-31T10:09:18.316Z,3.23
2022-07-31T10:12:06.018Z,3.57
2022-07-31T10:14:56.939Z,3.33
2022-07-31T10:17:46.596Z,3.80
2022-07-31T10:20:35.447Z,4.13
2022-07-31T10:23:25.349Z,5.73
2022-07-31T10:26:11.968Z,2.80
2022-07-31T10:28:59.416Z,4.93
2022-07-31T10:31:47.999Z,4.90
2022-07-31T10:34:35.596Z,2.97
2022-07-31T10:37:26.848Z,3.93
2022-07-31T10:40:25.093Z,2.30
2022-07-31T10:43:20.288Z,3.87
2022-07-31T10:46:07.275Z,3.60
2022-07-31T10:48:55.295Z,2.97
2022-07-31T10:51:48.233Z,3.57
2022-07-31T10:54:43.470Z,4.07
2022-07-31T10:57:33.279Z,4.33
2022-07-31T11:00:22.792Z,3.70
2022-07-31T11:03:16.707Z,3.23
2022-07-31T11:06:04.750Z,3.00
2022-07-31T11:08:53.715Z,3.17
2022-07-31T11:11:40.024Z,3.60
2022-07-31T11:14:38.841Z,4.43
2022-07-31T11:18:21.193Z,3.00
2022-07-31T11:20:40.109Z,5.77
2022-07-31T11:23:32.146Z,7.47
2022-07-31T11:26:18.879Z,4.80
2022-07-31T11:29:59.965Z,4.13
2022-07-31T11:32:39.082Z,3.47
2022-07-31T11:35:27.764Z,3.03
2022-07-31T11:38:14.228Z,4.17
2022-07-31T11:41:04.809Z,4.40
2022-07-31T11:43:54.425Z,3.00
2022-07-31T11:46:41.119Z,2.97
2022-07-31T11:49:47.819Z,2.70
2022-07-31T11:52:36.977Z,2.80
2022-07-31T11:55:24.159Z,2.33
2022-07-31T11:58:12.685Z,4.47
2022-07-31T12:01:00.548Z,3.13
2022-07-31T12:03:51.288Z,2.50
2022-07-31T12:06:38.306Z,2.30
2022-07-31T12:10:01.423Z,3.33
2022-07-31T12:12:32.414Z,3.93
2022-07-31T12:15:22.636Z,2.70
2022-07-31T12:18:09.405Z,2.70
2022-07-31T12:20:57.660Z,2.80
2022-07-31T12:23:46.386Z,2.70
2022-07-31T12:26:34.577Z,3.30
2022-07-31T12:29:30.480Z,3.47
2022-07-31T12:32:27.158Z,3.17
2022-07-31T12:35:13.891Z,4.30
2022-07-31T12:38:00.483Z,12.07
2022-07-31T12:40:48.378Z,4.97
2022-07-31T12:43:34.945Z,4.10
2022-07-31T12:46:22.923Z,3.43
2022-07-31T12:49:11.246Z,3.33
2022-07-31T12:51:58.233Z,5.47
2022-07-31T12:54:45.401Z,3.93
2022-07-31T12:57:32.016Z,5.10
2022-07-31T13:00:19.225Z,3.53
2022-07-31T13:03:05.780Z,3.97
2022-07-31T13:05:53.706Z,3.40
2022-07-31T13:08:40.414Z,5.57
2022-07-31T13:11:28.955Z,5.00
2022-07-31T13:14:15.933Z,4.47
2022-07-31T13:17:02.687Z,4.87
2022-07-31T13:19:50.300Z,5.80
2022-07-31T13:22:38.240Z,5.33
2022-07-31T13:25:24.939Z,4.53
2022-07-31T13:28:11.484Z,4.37
2022-07-31T13:30:57.797Z,5.93
2022-07-31T13:33:44.175Z,5.53
2022-07-31T13:36:35.636Z,4.70
2022-07-31T13:39:26.432Z,5.33
2022-07-31T13:42:12.855Z,4.53
2022-07-31T13:45:08.012Z,3.60
2022-07-31T13:47:59.657Z,2.73
2022-07-31T13:50:46.785Z,4.20
2022-07-31T13:53:33.833Z,2.77
2022-07-31T13:56:39.222Z,2.70
2022-07-31T13:59:29.304Z,3.90
2022-07-31T14:02:16.107Z,2.73
2022-07-31T14:05:02.697Z,4.30
2022-07-31T14:07:51.972Z,3.40
2022-07-31T14:10:39.678Z,2.20
2022-07-31T14:13:30.017Z,2.80
2022-07-31T14:16:16.574Z,4.37
2022-07-31T14:19:03.025Z,3.87
2022-07-31T14:21:50.136Z,4.50
2022-07-31T14:24:51.068Z,2.87
2022-07-31T14:27:38.701Z,2.60
2022-07-31T14:30:27.924Z,3.07
2022-07-31T14:33:17.033Z,5.97
2022-07-31T14:36:03.848Z,2.80
2022-07-31T14:38:50.578Z,4.63
2022-07-31T14:41:37.134Z,4.03
2022-07-31T14:44:28.468Z,3.87
2022-07-31T14:47:17.810Z,3.00
2022-07-31T14:50:07.952Z,3.77
2022-07-31T14:52:57.052Z,2.10
2022-07-31T14:55:43.513Z,2.40
2022-07-31T14:58:29.924Z,3.73
2022-07-31T15:01:16.450Z,1.90
2022-07-31T15:04:04.488Z,3.87
2022-07-31T15:07:03.109Z,2.00
2022-07-31T15:09:57.940Z,2.73
2022-07-31T15:12:44.289Z,5.53
2022-07-31T15:15:31.020Z,2.57
2022-07-31T15:18:20.762Z,3.43
2022-07-31T15:21:16.032Z,5.20
2022-07-31T15:24:02.675Z,5.87
2022-07-31T15:26:49.021Z,4.00
2022-07-31T15:30:05.485Z,4.40
2022-07-31T15:32:42.534Z,4.07
2022-07-31T15:35:29.167Z,4.63
2022-07-31T15:38:17.036Z,6.57
2022-07-31T15:41:03.699Z,6.87
2022-07-31T15:43:50.045Z,6.13
2022-07-31T15:46:36.367Z,5.03
2022-07-31T15:49:22.964Z,7.37
2022-07-31T15:52:18.894Z,5.90
2022-07-31T15:55:09.420Z,6.13
2022-07-31T15:57:55.789Z,8.10
2022-07-31T16:00:42.307Z,6.53
2022-07-31T16:03:50.669Z,6.10
2022-07-31T16:06:36.171Z,7.67
2022-07-31T16:09:24.064Z,8.83
2022-07-31T16:12:12.166Z,8.33
2022-07-31T16:14:58.754Z,5.97
2022-07-31T16:17:45.585Z,6.70
2022-07-31T16:20:32.103Z,6.73
2022-07-31T16:23:18.497Z,7.57
2022-07-31T16:26:05.089Z,6.77
2022-07-31T16:28:54.340Z,5.93
2022-07-31T16:31:41.783Z,8.47
2022-07-31T16:34:28.433Z,7.27
2022-07-31T16:37:14.997Z,5.87
2022-07-31T16:40:01.433Z,6.07
2022-07-31T16:42:53.134Z,5.70
2022-07-31T16:45:41.309Z,6.07
2022-07-31T16:48:28.064Z,5.83
2022-07-31T16:51:14.403Z,5.70
2022-07-31T16:54:12.692Z,6.80
2022-07-31T16:57:03.287Z,8.80
2022-07-31T16:59:57.912Z,7.03
2022-07-31T17:02:46.416Z,6.33
2022-07-31T17:05:32.945Z,6.47
2022-07-31T17:08:20.075Z,7.60
2022-07-31T17:11:07.005Z,6.10
2022-07-31T17:13:53.580Z,8.00
2022-07-31T17:16:44.867Z,7.03
2022-07-31T17:19:36.260Z,5.23
2022-07-31T17:22:29.592Z,5.27
2022-07-31T17:25:17.229Z,5.50
2022-07-31T17:28:03.977Z,7.13
2022-07-31T17:30:50.355Z,5.43
2022-07-31T17:33:59.058Z,4.60
2022-07-31T17:36:44.601Z,8.97
2022-07-31T17:39:31.516Z,5.83
2022-07-31T17:42:18.301Z,6.63
2022-07-31T17:45:11.059Z,4.87
2022-07-31T17:48:03.400Z,5.50
2022-07-31T17:50:54.107Z,4.93
2022-07-31T17:53:55.199Z,6.20
2022-07-31T17:56:46.224Z,5.37
2022-07-31T17:59:38.670Z,11.37
2022-07-31T18:02:25.288Z,5.40
2022-07-31T18:05:12.133Z,5.60
2022-07-31T18:07:58.793Z,4.77
2022-07-31T18:10:54.472Z,6.40
2022-07-31T18:13:48.338Z,4.90
2022-07-31T18:16:37.942Z,6.33
2022-07-31T18:19:24.523Z,4.97
2022-07-31T18:22:11.270Z,4.67
2022-07-31T18:24:57.737Z,7.53
2022-07-31T18:27:45.660Z,5.77
2022-07-31T18:30:34.797Z,6.03
2022-07-31T18:33:25.248Z,7.57
2022-07-31T18:36:12.260Z,5.93
2022-07-31T18:38:59.933Z,6.97
2022-07-31T18:41:48.929Z,8.23
2022-07-31T18:44:37.251Z,6.60
2022-07-31T18:47:23.901Z,6.30
2022-07-31T18:50:58.184Z,6.50
2022-07-31T18:53:17.802Z,7.03
2022-07-31T18:56:06.317Z,6.13
2022-07-31T18:58:53.069Z,8.60
2022-07-31T19:01:41.169Z,8.43
2022-07-31T19:04:29.246Z,7.10
2022-07-31T19:07:15.998Z,9.30
2022-07-31T19:10:02.481Z,9.53
2022-07-31T19:12:48.980Z,9.53
2022-07-31T19:15:36.329Z,7.23
2022-07-31T19:18:28.033Z,6.00
2022-07-31T19:21:23.541Z,8.43
2022-07-31T19:24:22.329Z,6.90
2022-07-31T19:27:08.942Z,7.70
2022-07-31T19:29:55.704Z,8.20
2022-07-31T19:32:42.440Z,7.27
2022-07-31T19:35:30.124Z,10.20
2022-07-31T19:38:16.683Z,8.83
2022-07-31T19:41:03.099Z,9.47
2022-07-31T19:43:49.970Z,7.67
2022-07-31T19:46:36.937Z,8.37
2022-07-31T19:49:23.397Z,6.10
2022-07-31T19:52:11.495Z,5.97
2022-07-31T19:54:58.164Z,5.90
2022-07-31T19:57:44.872Z,6.00
2022-07-31T20:00:32.596Z,6.77
2022-07-31T20:03:19.047Z,7.93
2022-07-31T20:06:06.792Z,5.23
2022-07-31T20:08:54.508Z,7.00
2022-07-31T20:11:41.165Z,5.27
2022-07-31T20:14:27.601Z,4.40
2022-07-31T20:17:13.905Z,4.67
2022-07-31T20:20:14.525Z,3.77
2022-07-31T20:23:02.489Z,3.43
2022-07-31T20:25:50.233Z,4.10
2022-07-31T20:28:37.457Z,3.57
2022-07-31T20:31:23.811Z,5.13
2022-07-31T20:34:10.150Z,4.37
2022-07-31T20:36:58.668Z,3.93
2022-07-31T20:39:46.071Z,4.03
2022-07-31T20:42:34.387Z,4.53
2022-07-31T20:45:20.616Z,6.37
2022-07-31T20:48:07.735Z,5.43
2022-07-31T20:50:54.296Z,5.80
2022-07-31T20:53:40.965Z,4.50
2022-07-31T20:56:27.276Z,4.47
2022-07-31T20:59:15.480Z,4.33
2022-07-31T21:02:03.678Z,5.07
2022-07-31T21:04:50.313Z,5.00
2022-07-31T21:07:36.646Z,5.67
2022-07-31T21:10:23.991Z,6.53
2022-07-31T21:13:10.915Z,6.50
2022-07-31T21:15:58.901Z,4.20
2022-07-31T21:18:47.209Z,6.83
2022-07-31T21:21:33.659Z,3.60
2022-07-31T21:24:20.588Z,6.43
2022-07-31T21:27:15.711Z,4.67
2022-07-31T21:30:02.973Z,5.27
2022-07-31T21:32:51.249Z,6.03
2022-07-31T21:35:40.048Z,7.43
2022-07-31T21:38:27.328Z,4.30
2022-07-31T21:41:14.331Z,7.40
2022-07-31T21:44:01.430Z,3.80
2022-07-31T21:46:51.796Z,4.53
2022-07-31T21:49:40.966Z,4.03
2022-07-31T21:52:29.973Z,4.47
2022-07-31T21:55:16.811Z,4.23
2022-07-31T21:58:03.230Z,4.20
2022-07-31T22:00:49.754Z,4.20
2022-07-31T22:03:36.651Z,8.33
2022-07-31T22:06:42.029Z,4.03
2022-07-31T22:09:28.657Z,4.13
2022-07-31T22:12:15.425Z,3.93
2022-07-31T22:15:02.016Z,4.57
2022-07-31T22:17:48.848Z,4.93
2022-07-31T22:20:36.059Z,5.20
2022-07-31T22:23:24.677Z,5.23
2022-07-31T22:26:11.447Z,5.87
2022-07-31T22:28:58.272Z,5.17
2022-07-31T22:31:49.705Z,4.43
2022-07-31T22:34:38.609Z,5.47
2022-07-31T22:37:26.879Z,4.23
2022-07-31T22:40:16.725Z,6.33
2022-07-31T22:43:03.514Z,4.90
2022-07-31T22:45:50.685Z,5.33
2022-07-31T22:48:38.702Z,4.53
2022-07-31T22:51:25.591Z,8.57
2022-07-31T22:54:11.932Z,4.33
2022-07-31T22:56:59.761Z,5.03
2022-07-31T22:59:46.790Z,5.97
2022-07-31T23:02:33.236Z,6.13
2022-07-31T23:05:21.216Z,6.30
2022-07-31T23:08:07.853Z,6.00
2022-07-31T23:10:54.462Z,6.10
2022-07-31T23:13:42.199Z,7.50
2022-07-31T23:16:29.780Z,6.53
2022-07-31T23:19:16.293Z,5.93
2022-07-31T23:22:02.885Z,7.00
2022-07-31T23:24:49.533Z,5.70
2022-07-31T23:27:36.195Z,5.50
2022-07-31T23:30:27.454Z,6.53
2022-07-31T23:33:16.437Z,5.03
2022-07-31T23:36:03.537Z,5.67
2022-07-31T23:38:50.097Z,11.37
2022-07-31T23:41:54.133Z,5.13
2022-07-31T23:44:41.066Z,5.37
2022-07-31T23:47:44.553Z,7.73
2022-07-31T23:50:32.312Z,5.43
2022-07-31T23:53:18.639Z,4.97
2022-07-31T23:56:05.304Z,7.17
2022-07-31T23:59:05.239Z,7.83
